sensor_id;sensor_type;location;lat;lon;timestamp;temperature;humidity
10441;DHT22;5268;49.346;9.522;2023-12-14T04:08:52;7.90;99.90
10441;DHT22;5268;49.346;9.522;2023-12-14T04:13:54;7.90;99.90
10441;DHT22;5268;49.346;9.522;2023-12-14T04:18:57;7.80;99.90
10441;DHT22;5268;49.346;9.522;2023-12-14T04:24:00;7.80;99.90
10441;DHT22;5268;49.346;9.522;2023-12-14T04:29:02;7.80;99.90
10441;DHT22;5268;49.346;9.522;2023-12-14T04:34:04;7.80;99.90
10441;DHT22;5268;49.346;9.522;2023-12-14T04:39:14;7.80;99.90
10441;DHT22;5268;49.346;9.522;2023-12-14T04:44:17;7.80;99.90
10441;DHT22;5268;49.346;9.522;2023-12-14T04:49:19;7.80;99.90
10441;DHT22;5268;49.346;9.522;2023-12-14T04:54:22;7.80;99.90
10441;DHT22;5268;49.346;9.522;2023-12-14T04:59:24;7.80;99.90
10441;DHT22;5268;49.346;9.522;2023-12-14T05:04:27;7.70;99.90
10441;DHT22;5268;49.346;9.522;2023-12-14T05:09:30;7.70;99.90
10441;DHT22;5268;49.346;9.522;2023-12-14T05:14:32;7.70;99.90
10441;DHT22;5268;49.346;9.522;2023-12-14T05:19:34;7.70;99.90
10441;DHT22;5268;49.346;9.522;2023-12-14T05:24:37;7.70;99.90
10441;DHT22;5268;49.346;9.522;2023-12-14T05:29:39;7.70;99.90
10441;DHT22;5268;49.346;9.522;2023-12-14T05:34:41;7.70;99.90
10441;DHT22;5268;49.346;9.522;2023-12-14T05:39:45;7.70;99.90
10441;DHT22;5268;49.346;9.522;2023-12-14T05:44:47;7.60;99.90
10441;DHT22;5268;49.346;9.522;2023-12-14T05:49:49;7.60;99.90
10441;DHT22;5268;49.346;9.522;2023-12-14T05:54:52;7.60;99.90
10441;DHT22;5268;49.346;9.522;2023-12-14T05:59:54;7.50;99.90
10441;DHT22;5268;49.346;9.522;2023-12-14T06:04:59;7.50;99.90
10441;DHT22;5268;49.346;9.522;2023-12-14T06:10:06;7.50;99.90
10441;DHT22;5268;49.346;9.522;2023-12-14T06:15:09;7.50;99.90
10441;DHT22;5268;49.346;9.522;2023-12-14T06:20:12;7.60;99.90
10441;DHT22;5268;49.346;9.522;2023-12-14T06:25:15;7.60;99.90
10441;DHT22;5268;49.346;9.522;2023-12-14T06:30:18;7.60;99.90
10441;DHT22;5268;49.346;9.522;2023-12-14T06:35:20;7.60;99.90
10441;DHT22;5268;49.346;9.522;2023-12-14T06:40:24;7.60;99.90
10441;DHT22;5268;49.346;9.522;2023-12-14T06:45:26;7.50;99.90
10441;DHT22;5268;49.346;9.522;2023-12-14T06:50:28;7.50;99.90
10441;DHT22;5268;49.346;9.522;2023-12-14T06:55:32;7.50;99.90
10441;DHT22;5268;49.346;9.522;2023-12-14T07:00:34;7.50;99.90
10441;DHT22;5268;49.346;9.522;2023-12-14T07:05:36;7.50;99.90
10441;DHT22;5268;49.346;9.522;2023-12-14T07:10:41;7.50;99.90
10441;DHT22;5268;49.346;9.522;2023-12-14T07:15:43;7.50;99.90
10441;DHT22;5268;49.346;9.522;2023-12-14T07:20:45;7.50;99.90
10441;DHT22;5268;49.346;9.522;2023-12-14T07:25:48;7.50;99.90
10441;DHT22;5268;49.346;9.522;2023-12-14T07:30:50;7.50;99.90
10441;DHT22;5268;49.346;9.522;2023-12-14T07:35:52;7.50;99.90
10441;DHT22;5268;49.346;9.522;2023-12-14T07:40:56;7.50;99.90
10441;DHT22;5268;49.346;9.522;2023-12-14T07:45:58;7.50;99.90
10441;DHT22;5268;49.346;9.522;2023-12-14T07:51:00;7.50;99.90
10441;DHT22;5268;49.346;9.522;2023-12-14T07:56:04;7.50;99.90
10441;DHT22;5268;49.346;9.522;2023-12-14T08:01:06;7.60;99.90
10441;DHT22;5268;49.346;9.522;2023-12-14T08:06:08;7.60;99.90
10441;DHT22;5268;49.346;9.522;2023-12-14T08:11:12;7.60;99.90
10441;DHT22;5268;49.346;9.522;2023-12-14T08:16:14;7.60;99.90
10441;DHT22;5268;49.346;9.522;2023-12-14T08:21:18;7.70;99.90
10441;DHT22;5268;49.346;9.522;2023-12-14T08:26:21;7.70;99.90
10441;DHT22;5268;49.346;9.522;2023-12-14T08:31:23;7.70;99.90
10441;DHT22;5268;49.346;9.522;2023-12-14T08:36:27;7.70;99.90
10441;DHT22;5268;49.346;9.522;2023-12-14T08:41:30;7.80;99.90
10441;DHT22;5268;49.346;9.522;2023-12-14T08:46:38;7.80;99.90
10441;DHT22;5268;49.346;9.522;2023-12-14T08:51:41;7.80;99.90
10441;DHT22;5268;49.346;9.522;2023-12-14T08:56:45;7.90;99.90
10441;DHT22;5268;49.346;9.522;2023-12-14T09:01:47;7.90;99.90
10441;DHT22;5268;49.346;9.522;2023-12-14T09:06:49;7.90;99.90
10441;DHT22;5268;49.346;9.522;2023-12-14T09:11:53;7.90;99.90
10441;DHT22;5268;49.346;9.522;2023-12-14T09:16:56;7.90;99.90
10441;DHT22;5268;49.346;9.522;2023-12-14T09:21:59;8.00;99.90
10441;DHT22;5268;49.346;9.522;2023-12-14T09:27:02;8.00;99.90
10441;DHT22;5268;49.346;9.522;2023-12-14T09:32:06;8.10;99.90
10441;DHT22;5268;49.346;9.522;2023-12-14T09:37:09;8.20;99.90
10441;DHT22;5268;49.346;9.522;2023-12-14T09:42:17;8.20;99.90
10441;DHT22;5268;49.346;9.522;2023-12-14T09:47:20;8.20;99.90
10441;DHT22;5268;49.346;9.522;2023-12-14T09:52:21;8.20;99.90
10441;DHT22;5268;49.346;9.522;2023-12-14T09:57:25;8.20;99.90
10441;DHT22;5268;49.346;9.522;2023-12-14T10:02:27;8.30;99.90
10441;DHT22;5268;49.346;9.522;2023-12-14T10:07:30;8.30;99.90
10441;DHT22;5268;49.346;9.522;2023-12-14T10:12:50;8.30;99.90
10441;DHT22;5268;49.346;9.522;2023-12-14T10:17:53;8.30;99.90
10441;DHT22;5268;49.346;9.522;2023-12-14T10:22:55;8.30;99.90
10441;DHT22;5268;49.346;9.522;2023-12-14T10:27:59;8.40;99.90
10441;DHT22;5268;49.346;9.522;2023-12-14T10:33:02;8.40;99.90
10441;DHT22;5268;49.346;9.522;2023-12-14T10:38:05;8.40;99.90
10441;DHT22;5268;49.346;9.522;2023-12-14T10:43:10;8.50;99.90
10441;DHT22;5268;49.346;9.522;2023-12-14T10:48:13;8.50;99.90
10441;DHT22;5268;49.346;9.522;2023-12-14T10:53:16;8.50;99.90
10441;DHT22;5268;49.346;9.522;2023-12-14T10:58:20;8.50;99.90
10441;DHT22;5268;49.346;9.522;2023-12-14T11:03:21;8.50;99.90
10441;DHT22;5268;49.346;9.522;2023-12-14T11:08:23;8.50;99.90
10441;DHT22;5268;49.346;9.522;2023-12-14T11:13:27;8.50;99.90
10441;DHT22;5268;49.346;9.522;2023-12-14T11:18:32;8.50;99.90
10441;DHT22;5268;49.346;9.522;2023-12-14T11:23:36;8.50;99.90
10441;DHT22;5268;49.346;9.522;2023-12-14T11:28:41;8.50;99.90
10441;DHT22;5268;49.346;9.522;2023-12-14T11:33:43;8.60;99.90
10441;DHT22;5268;49.346;9.522;2023-12-14T11:38:47;8.60;99.90
10441;DHT22;5268;49.346;9.522;2023-12-14T11:43:52;8.70;99.90
10441;DHT22;5268;49.346;9.522;2023-12-14T11:48:56;8.70;99.90
10441;DHT22;5268;49.346;9.522;2023-12-14T11:54:00;8.80;99.90
10441;DHT22;5268;49.346;9.522;2023-12-14T11:59:04;8.80;99.90
10441;DHT22;5268;49.346;9.522;2023-12-14T12:04:09;8.80;99.90
10441;DHT22;5268;49.346;9.522;2023-12-14T12:09:11;8.80;99.90
10441;DHT22;5268;49.346;9.522;2023-12-14T12:14:15;8.80;99.90
10441;DHT22;5268;49.346;9.522;2023-12-14T12:19:18;8.80;99.90
10441;DHT22;5268;49.346;9.522;2023-12-14T12:24:20;8.80;99.90
10441;DHT22;5268;49.346;9.522;2023-12-14T12:29:24;8.90;99.90
10441;DHT22;5268;49.346;9.522;2023-12-14T12:34:25;8.80;99.90
10441;DHT22;5268;49.346;9.522;2023-12-14T12:39:28;8.80;99.90
10441;DHT22;5268;49.346;9.522;2023-12-14T12:44:31;8.80;99.90
10441;DHT22;5268;49.346;9.522;2023-12-14T12:49:34;8.80;99.90
10441;DHT22;5268;49.346;9.522;2023-12-14T12:54:36;8.80;99.90
10441;DHT22;5268;49.346;9.522;2023-12-14T12:59:39;8.80;99.90
10441;DHT22;5268;49.346;9.522;2023-12-14T13:04:41;8.80;99.90
10441;DHT22;5268;49.346;9.522;2023-12-14T13:09:43;8.80;99.90
10441;DHT22;5268;49.346;9.522;2023-12-14T13:14:46;8.70;99.90
10441;DHT22;5268;49.346;9.522;2023-12-14T13:19:49;8.70;99.90
10441;DHT22;5268;49.346;9.522;2023-12-14T13:24:51;8.60;99.90
10441;DHT22;5268;49.346;9.522;2023-12-14T13:29:55;8.60;99.90
10441;DHT22;5268;49.346;9.522;2023-12-14T13:34:56;8.60;99.90
10441;DHT22;5268;49.346;9.522;2023-12-14T13:39:58;8.60;99.90
10441;DHT22;5268;49.346;9.522;2023-12-14T13:45:03;8.60;99.90
10441;DHT22;5268;49.346;9.522;2023-12-14T13:50:06;8.60;99.90
10441;DHT22;5268;49.346;9.522;2023-12-14T13:55:09;8.60;99.90
10441;DHT22;5268;49.346;9.522;2023-12-14T14:00:14;8.60;99.90
10441;DHT22;5268;49.346;9.522;2023-12-14T14:05:16;8.70;99.90
10441;DHT22;5268;49.346;9.522;2023-12-14T14:10:19;8.70;99.90
10441;DHT22;5268;49.346;9.522;2023-12-14T14:15:22;8.80;99.90
10441;DHT22;5268;49.346;9.522;2023-12-14T14:20:25;8.80;99.90
10441;DHT22;5268;49.346;9.522;2023-12-14T14:25:27;8.80;99.90
10441;DHT22;5268;49.346;9.522;2023-12-14T14:30:30;8.70;99.90
10441;DHT22;5268;49.346;9.522;2023-12-14T14:35:32;8.70;99.90
10441;DHT22;5268;49.346;9.522;2023-12-14T14:40:37;8.70;99.90
10441;DHT22;5268;49.346;9.522;2023-12-14T14:45:41;8.70;99.90
10441;DHT22;5268;49.346;9.522;2023-12-14T14:50:44;8.70;99.90
10441;DHT22;5268;49.346;9.522;2023-12-14T14:55:47;8.60;99.90
10441;DHT22;5268;49.346;9.522;2023-12-14T15:00:55;8.60;99.90
10441;DHT22;5268;49.346;9.522;2023-12-14T15:05:57;8.60;99.90
10441;DHT22;5268;49.346;9.522;2023-12-14T15:10:59;8.60;99.90
10441;DHT22;5268;49.346;9.522;2023-12-14T15:16:03;8.60;99.90
10441;DHT22;5268;49.346;9.522;2023-12-14T15:21:06;8.60;99.90
10441;DHT22;5268;49.346;9.522;2023-12-14T15:26:08;8.60;99.90
10441;DHT22;5268;49.346;9.522;2023-12-14T15:31:12;8.60;99.90
10441;DHT22;5268;49.346;9.522;2023-12-14T15:36:14;8.50;99.90
10441;DHT22;5268;49.346;9.522;2023-12-14T15:41:16;8.50;99.90
10441;DHT22;5268;49.346;9.522;2023-12-14T15:46:19;8.50;99.90
10441;DHT22;5268;49.346;9.522;2023-12-14T15:51:21;8.40;99.90
10441;DHT22;5268;49.346;9.522;2023-12-14T15:56:23;8.40;99.90
10441;DHT22;5268;49.346;9.522;2023-12-14T16:01:28;8.30;99.90
10441;DHT22;5268;49.346;9.522;2023-12-14T16:06:30;8.30;99.90
10441;DHT22;5268;49.346;9.522;2023-12-14T16:11:32;8.30;99.90
10441;DHT22;5268;49.346;9.522;2023-12-14T16:16:36;8.30;99.90
10441;DHT22;5268;49.346;9.522;2023-12-14T16:21:37;8.20;99.90
10441;DHT22;5268;49.346;9.522;2023-12-14T16:26:39;8.20;99.90
10441;DHT22;5268;49.346;9.522;2023-12-14T16:31:44;8.20;99.90
10441;DHT22;5268;49.346;9.522;2023-12-14T16:36:47;8.20;99.90
10441;DHT22;5268;49.346;9.522;2023-12-14T16:41:49;8.20;99.90
10441;DHT22;5268;49.346;9.522;2023-12-14T16:46:53;8.10;99.90
10441;DHT22;5268;49.346;9.522;2023-12-14T16:51:55;8.10;99.90
10441;DHT22;5268;49.346;9.522;2023-12-14T16:56:57;8.10;99.90
10441;DHT22;5268;49.346;9.522;2023-12-14T17:02:00;8.10;99.90
10441;DHT22;5268;49.346;9.522;2023-12-14T17:07:03;8.10;99.90
10441;DHT22;5268;49.346;9.522;2023-12-14T17:12:05;8.10;99.90
10441;DHT22;5268;49.346;9.522;2023-12-14T17:17:09;8.10;99.90
10441;DHT22;5268;49.346;9.522;2023-12-14T17:22:11;8.10;99.90
10441;DHT22;5268;49.346;9.522;2023-12-14T17:27:12;8.10;99.90
10441;DHT22;5268;49.346;9.522;2023-12-14T17:32:16;8.00;99.90
10441;DHT22;5268;49.346;9.522;2023-12-14T17:37:18;8.00;99.90
10441;DHT22;5268;49.346;9.522;2023-12-14T17:42:20;7.90;99.90
10441;DHT22;5268;49.346;9.522;2023-12-14T17:47:24;7.90;99.90
10441;DHT22;5268;49.346;9.522;2023-12-14T17:52:26;7.80;99.90
10441;DHT22;5268;49.346;9.522;2023-12-14T17:57:28;7.90;99.90
10441;DHT22;5268;49.346;9.522;2023-12-14T18:02:32;7.80;99.90
10441;DHT22;5268;49.346;9.522;2023-12-14T18:07:34;7.70;99.90
10441;DHT22;5268;49.346;9.522;2023-12-14T18:12:36;7.70;99.90
10441;DHT22;5268;49.346;9.522;2023-12-14T18:17:40;7.60;99.90
10441;DHT22;5268;49.346;9.522;2023-12-14T18:22:42;7.60;99.90
10441;DHT22;5268;49.346;9.522;2023-12-14T18:27:44;7.60;99.90
10441;DHT22;5268;49.346;9.522;2023-12-14T18:32:47;7.60;99.90
10441;DHT22;5268;49.346;9.522;2023-12-14T18:37:52;7.50;99.90
10441;DHT22;5268;49.346;9.522;2023-12-14T18:42:54;7.50;99.90
10441;DHT22;5268;49.346;9.522;2023-12-14T18:47:57;7.50;99.90
10441;DHT22;5268;49.346;9.522;2023-12-14T18:52:59;7.50;99.90
10441;DHT22;5268;49.346;9.522;2023-12-14T18:58:04;7.40;99.90
10441;DHT22;5268;49.346;9.522;2023-12-14T19:03:08;7.50;99.90
10441;DHT22;5268;49.346;9.522;2023-12-14T19:08:10;7.40;99.90
10441;DHT22;5268;49.346;9.522;2023-12-14T19:13:12;7.40;99.90
10441;DHT22;5268;49.346;9.522;2023-12-14T19:18:16;7.40;99.90
10441;DHT22;5268;49.346;9.522;2023-12-14T19:23:18;7.40;99.90
10441;DHT22;5268;49.346;9.522;2023-12-14T19:28:20;7.40;99.90
10441;DHT22;5268;49.346;9.522;2023-12-14T19:33:23;7.40;99.90
10441;DHT22;5268;49.346;9.522;2023-12-14T19:38:25;7.40;99.90
10441;DHT22;5268;49.346;9.522;2023-12-14T19:43:27;7.40;99.90
10441;DHT22;5268;49.346;9.522;2023-12-14T19:48:31;7.40;99.90
10441;DHT22;5268;49.346;9.522;2023-12-14T19:53:33;7.30;99.90
10441;DHT22;5268;49.346;9.522;2023-12-14T19:58:35;7.30;99.90
10441;DHT22;5268;49.346;9.522;2023-12-14T20:03:39;7.20;99.90
10441;DHT22;5268;49.346;9.522;2023-12-14T20:08:41;7.30;99.90
10441;DHT22;5268;49.346;9.522;2023-12-14T20:13:43;7.20;99.90
10441;DHT22;5268;49.346;9.522;2023-12-14T20:18:47;7.20;99.90
10441;DHT22;5268;49.346;9.522;2023-12-14T20:23:48;7.10;99.90
10441;DHT22;5268;49.346;9.522;2023-12-14T20:28:50;7.00;99.90
10441;DHT22;5268;49.346;9.522;2023-12-14T20:33:55;7.00;99.90
10441;DHT22;5268;49.346;9.522;2023-12-14T20:38:57;7.00;99.90
10441;DHT22;5268;49.346;9.522;2023-12-14T20:44:01;6.90;99.90
10441;DHT22;5268;49.346;9.522;2023-12-14T20:49:05;6.90;99.90
10441;DHT22;5268;49.346;9.522;2023-12-14T20:54:07;6.90;99.90
10441;DHT22;5268;49.346;9.522;2023-12-14T20:59:09;6.80;99.90
10441;DHT22;5268;49.346;9.522;2023-12-14T21:04:13;6.80;99.90
10441;DHT22;5268;49.346;9.522;2023-12-14T21:09:15;6.80;99.90
10441;DHT22;5268;49.346;9.522;2023-12-14T21:14:17;6.80;99.90
10441;DHT22;5268;49.346;9.522;2023-12-14T21:19:20;6.80;99.90
10441;DHT22;5268;49.346;9.522;2023-12-14T21:24:22;6.70;99.90
10441;DHT22;5268;49.346;9.522;2023-12-14T21:29:26;6.60;99.90
10441;DHT22;5268;49.346;9.522;2023-12-14T21:34:29;6.70;99.90
10441;DHT22;5268;49.346;9.522;2023-12-14T21:39:31;6.60;99.90
10441;DHT22;5268;49.346;9.522;2023-12-14T21:44:34;6.60;99.90
10441;DHT22;5268;49.346;9.522;2023-12-14T21:49:37;6.60;99.90
10441;DHT22;5268;49.346;9.522;2023-12-14T21:54:39;6.50;99.90
10441;DHT22;5268;49.346;9.522;2023-12-14T21:59:41;6.50;99.90
10441;DHT22;5268;49.346;9.522;2023-12-14T22:04:45;6.50;99.90
10441;DHT22;5268;49.346;9.522;2023-12-14T22:09:47;6.50;99.90
10441;DHT22;5268;49.346;9.522;2023-12-14T22:14:49;6.40;99.90
10441;DHT22;5268;49.346;9.522;2023-12-14T22:19:52;6.40;99.90
10441;DHT22;5268;49.346;9.522;2023-12-14T22:24:54;6.40;99.90
10441;DHT22;5268;49.346;9.522;2023-12-14T22:29:56;6.30;99.90
10441;DHT22;5268;49.346;9.522;2023-12-14T22:34:59;6.30;99.90
10441;DHT22;5268;49.346;9.522;2023-12-14T22:40:02;6.20;99.90
10441;DHT22;5268;49.346;9.522;2023-12-14T22:45:05;6.20;99.90
10441;DHT22;5268;49.346;9.522;2023-12-14T22:50:10;6.20;99.90
